sensor_id;sensor_type;location;lat;lon;timestamp;temperature;humidity
30399;DHT22;17195;50.838;7.214;2022-12-15T00:00:46;-6.20;99.90
30399;DHT22;17195;50.838;7.214;2022-12-15T00:03:30;-6.20;99.90
30399;DHT22;17195;50.838;7.214;2022-12-15T00:06:14;-6.20;99.90
30399;DHT22;17195;50.838;7.214;2022-12-15T00:08:59;-6.20;99.90
30399;DHT22;17195;50.838;7.214;2022-12-15T00:11:43;-6.20;99.90
30399;DHT22;17195;50.838;7.214;2022-12-15T00:14:27;-6.30;99.90
30399;DHT22;17195;50.838;7.214;2022-12-15T00:17:11;-6.30;99.90
30399;DHT22;17195;50.838;7.214;2022-12-15T00:19:55;-6.30;99.90
30399;DHT22;17195;50.838;7.214;2022-12-15T00:22:39;-6.30;99.90
30399;DHT22;17195;50.838;7.214;2022-12-15T00:25:24;-6.30;99.90
30399;DHT22;17195;50.838;7.214;2022-12-15T00:28:08;-6.40;99.90
30399;DHT22;17195;50.838;7.214;2022-12-15T00:30:53;-6.40;99.90
30399;DHT22;17195;50.838;7.214;2022-12-15T00:33:37;-6.40;99.90
30399;DHT22;17195;50.838;7.214;2022-12-15T00:36:21;-6.50;99.90
30399;DHT22;17195;50.838;7.214;2022-12-15T00:39:06;-6.50;99.90
30399;DHT22;17195;50.838;7.214;2022-12-15T00:41:31;-6.50;99.90
30399;DHT22;17195;50.838;7.214;2022-12-15T00:43:57;-6.60;99.90
30399;DHT22;17195;50.838;7.214;2022-12-15T00:46:22;-6.60;99.90
30399;DHT22;17195;50.838;7.214;2022-12-15T00:49:06;-6.60;99.90
30399;DHT22;17195;50.838;7.214;2022-12-15T00:51:52;-6.60;99.90
30399;DHT22;17195;50.838;7.214;2022-12-15T00:54:36;-6.50;99.90
30399;DHT22;17195;50.838;7.214;2022-12-15T00:57:20;-6.50;99.90
30399;DHT22;17195;50.838;7.214;2022-12-15T01:00:05;-6.50;99.90
30399;DHT22;17195;50.838;7.214;2022-12-15T01:02:49;-6.40;99.90
30399;DHT22;17195;50.838;7.214;2022-12-15T01:05:33;-6.50;99.90
30399;DHT22;17195;50.838;7.214;2022-12-15T01:08:17;-6.60;99.90
30399;DHT22;17195;50.838;7.214;2022-12-15T01:11:02;-6.60;99.90
30399;DHT22;17195;50.838;7.214;2022-12-15T01:13:46;-6.70;99.90
30399;DHT22;17195;50.838;7.214;2022-12-15T01:16:30;-6.70;99.90
30399;DHT22;17195;50.838;7.214;2022-12-15T01:19:15;-6.70;99.90
30399;DHT22;17195;50.838;7.214;2022-12-15T01:21:59;-6.70;99.90
30399;DHT22;17195;50.838;7.214;2022-12-15T01:24:24;-6.80;99.90
30399;DHT22;17195;50.838;7.214;2022-12-15T01:26:50;-6.80;99.90
30399;DHT22;17195;50.838;7.214;2022-12-15T01:29:15;-6.80;99.90
30399;DHT22;17195;50.838;7.214;2022-12-15T01:31:41;-6.70;99.90
30399;DHT22;17195;50.838;7.214;2022-12-15T01:34:08;-6.80;99.90
30399;DHT22;17195;50.838;7.214;2022-12-15T01:36:33;-6.80;99.90
30399;DHT22;17195;50.838;7.214;2022-12-15T01:39:00;-6.80;99.90
30399;DHT22;17195;50.838;7.214;2022-12-15T01:41:26;-6.80;99.90
30399;DHT22;17195;50.838;7.214;2022-12-15T01:43:51;-6.80;99.90
30399;DHT22;17195;50.838;7.214;2022-12-15T01:46:21;-6.80;99.90
30399;DHT22;17195;50.838;7.214;2022-12-15T01:48:53;-6.80;99.90
30399;DHT22;17195;50.838;7.214;2022-12-15T01:51:31;-6.90;99.90
30399;DHT22;17195;50.838;7.214;2022-12-15T01:54:19;-7.00;99.90
30399;DHT22;17195;50.838;7.214;2022-12-15T01:56:49;-7.00;99.90
30399;DHT22;17195;50.838;7.214;2022-12-15T01:59:23;-7.00;99.90
30399;DHT22;17195;50.838;7.214;2022-12-15T02:01:51;-7.00;99.90
30399;DHT22;17195;50.838;7.214;2022-12-15T02:04:21;-7.10;99.90
30399;DHT22;17195;50.838;7.214;2022-12-15T02:06:47;-7.10;99.90
30399;DHT22;17195;50.838;7.214;2022-12-15T02:09:14;-7.10;99.90
30399;DHT22;17195;50.838;7.214;2022-12-15T02:14:10;-7.10;99.90
30399;DHT22;17195;50.838;7.214;2022-12-15T02:24:59;-7.30;99.90
30399;DHT22;17195;50.838;7.214;2022-12-15T02:30:06;-7.40;99.90
30399;DHT22;17195;50.838;7.214;2022-12-15T02:33:02;-7.50;99.90
30399;DHT22;17195;50.838;7.214;2022-12-15T02:40:56;-7.50;99.90
30399;DHT22;17195;50.838;7.214;2022-12-15T02:43:21;-7.50;99.90
30399;DHT22;17195;50.838;7.214;2022-12-15T02:46:28;-7.50;99.90
30399;DHT22;17195;50.838;7.214;2022-12-15T02:57:05;-7.60;99.90
30399;DHT22;17195;50.838;7.214;2022-12-15T02:59:50;-7.60;99.90
30399;DHT22;17195;50.838;7.214;2022-12-15T03:02:21;-7.60;99.90
30399;DHT22;17195;50.838;7.214;2022-12-15T03:04:49;-7.60;99.90
30399;DHT22;17195;50.838;7.214;2022-12-15T03:07:14;-7.70;99.90
30399;DHT22;17195;50.838;7.214;2022-12-15T03:09:40;-7.70;99.90
30399;DHT22;17195;50.838;7.214;2022-12-15T03:12:06;-7.70;99.90
30399;DHT22;17195;50.838;7.214;2022-12-15T03:14:32;-7.70;99.90
30399;DHT22;17195;50.838;7.214;2022-12-15T03:16:58;-7.70;99.90
30399;DHT22;17195;50.838;7.214;2022-12-15T03:19:23;-7.70;99.90
30399;DHT22;17195;50.838;7.214;2022-12-15T03:21:50;-7.70;99.90
30399;DHT22;17195;50.838;7.214;2022-12-15T03:24:16;-7.70;99.90
30399;DHT22;17195;50.838;7.214;2022-12-15T03:26:41;-7.80;99.90
30399;DHT22;17195;50.838;7.214;2022-12-15T03:29:08;-7.80;99.90
30399;DHT22;17195;50.838;7.214;2022-12-15T03:31:33;-7.80;99.90
30399;DHT22;17195;50.838;7.214;2022-12-15T03:33:59;-7.80;99.90
30399;DHT22;17195;50.838;7.214;2022-12-15T03:36:24;-7.80;99.90
30399;DHT22;17195;50.838;7.214;2022-12-15T03:38:50;-7.80;99.90
30399;DHT22;17195;50.838;7.214;2022-12-15T03:41:15;-7.80;99.90
30399;DHT22;17195;50.838;7.214;2022-12-15T03:43:42;-7.80;99.90
30399;DHT22;17195;50.838;7.214;2022-12-15T03:46:08;-7.90;99.90
30399;DHT22;17195;50.838;7.214;2022-12-15T03:48:33;-7.80;99.90
30399;DHT22;17195;50.838;7.214;2022-12-15T03:50:59;-7.70;99.90
30399;DHT22;17195;50.838;7.214;2022-12-15T03:53:25;-7.80;99.90
30399;DHT22;17195;50.838;7.214;2022-12-15T03:55:50;-7.80;99.90
30399;DHT22;17195;50.838;7.214;2022-12-15T03:58:16;-7.80;99.90
30399;DHT22;17195;50.838;7.214;2022-12-15T04:00:41;-7.90;99.90
30399;DHT22;17195;50.838;7.214;2022-12-15T04:03:09;-7.90;99.90
30399;DHT22;17195;50.838;7.214;2022-12-15T04:05:36;-7.90;99.90
30399;DHT22;17195;50.838;7.214;2022-12-15T04:08:02;-7.90;99.90
30399;DHT22;17195;50.838;7.214;2022-12-15T04:10:30;-7.90;99.90
30399;DHT22;17195;50.838;7.214;2022-12-15T04:13:09;-7.90;99.90
30399;DHT22;17195;50.838;7.214;2022-12-15T04:15:37;-8.00;99.90
30399;DHT22;17195;50.838;7.214;2022-12-15T04:18:05;-7.90;99.90
30399;DHT22;17195;50.838;7.214;2022-12-15T04:20:31;-7.90;99.90
30399;DHT22;17195;50.838;7.214;2022-12-15T04:22:57;-7.90;99.90
30399;DHT22;17195;50.838;7.214;2022-12-15T04:25:24;-7.90;99.90
30399;DHT22;17195;50.838;7.214;2022-12-15T04:28:09;-7.80;99.90
30399;DHT22;17195;50.838;7.214;2022-12-15T04:31:09;-7.80;99.90
30399;DHT22;17195;50.838;7.214;2022-12-15T04:34:04;-7.80;99.90
30399;DHT22;17195;50.838;7.214;2022-12-15T04:36:50;-7.70;99.90
30399;DHT22;17195;50.838;7.214;2022-12-15T04:39:38;-7.70;99.90
30399;DHT22;17195;50.838;7.214;2022-12-15T04:42:23;-7.70;99.90
30399;DHT22;17195;50.838;7.214;2022-12-15T04:45:08;-7.70;99.90
30399;DHT22;17195;50.838;7.214;2022-12-15T04:47:53;-7.60;99.90
30399;DHT22;17195;50.838;7.214;2022-12-15T04:50:37;-7.40;99.90
30399;DHT22;17195;50.838;7.214;2022-12-15T04:53:21;-7.30;99.90
30399;DHT22;17195;50.838;7.214;2022-12-15T04:56:14;-7.20;99.90
30399;DHT22;17195;50.838;7.214;2022-12-15T04:58:59;-7.10;99.90
30399;DHT22;17195;50.838;7.214;2022-12-15T05:01:44;-6.90;99.90
30399;DHT22;17195;50.838;7.214;2022-12-15T05:04:28;-6.70;99.90
30399;DHT22;17195;50.838;7.214;2022-12-15T05:07:13;-6.60;99.90
30399;DHT22;17195;50.838;7.214;2022-12-15T05:09:57;-6.50;99.90
30399;DHT22;17195;50.838;7.214;2022-12-15T05:12:42;-6.40;99.90
30399;DHT22;17195;50.838;7.214;2022-12-15T05:15:27;-6.30;99.90
30399;DHT22;17195;50.838;7.214;2022-12-15T05:18:11;-6.00;99.90
30399;DHT22;17195;50.838;7.214;2022-12-15T05:20:57;-6.00;99.90
30399;DHT22;17195;50.838;7.214;2022-12-15T05:23:41;-5.90;99.90
30399;DHT22;17195;50.838;7.214;2022-12-15T05:26:25;-5.70;99.90
30399;DHT22;17195;50.838;7.214;2022-12-15T05:29:09;-5.70;99.90
30399;DHT22;17195;50.838;7.214;2022-12-15T05:31:53;-5.60;99.90
30399;DHT22;17195;50.838;7.214;2022-12-15T05:34:33;-5.50;99.90
30399;DHT22;17195;50.838;7.214;2022-12-15T05:37:00;-5.40;99.90
30399;DHT22;17195;50.838;7.214;2022-12-15T05:39:27;-5.40;99.90
30399;DHT22;17195;50.838;7.214;2022-12-15T05:41:54;-5.40;99.90
30399;DHT22;17195;50.838;7.214;2022-12-15T05:44:21;-5.30;99.90
30399;DHT22;17195;50.838;7.214;2022-12-15T05:46:47;-5.20;99.90
30399;DHT22;17195;50.838;7.214;2022-12-15T05:49:14;-5.10;99.90
30399;DHT22;17195;50.838;7.214;2022-12-15T05:51:41;-5.10;99.90
30399;DHT22;17195;50.838;7.214;2022-12-15T05:54:08;-5.10;99.90
30399;DHT22;17195;50.838;7.214;2022-12-15T05:56:35;-5.00;99.90
30399;DHT22;17195;50.838;7.214;2022-12-15T05:59:00;-5.00;99.90
30399;DHT22;17195;50.838;7.214;2022-12-15T06:01:26;-4.90;99.90
30399;DHT22;17195;50.838;7.214;2022-12-15T06:03:52;-4.90;99.90
30399;DHT22;17195;50.838;7.214;2022-12-15T06:06:18;-4.90;99.90
30399;DHT22;17195;50.838;7.214;2022-12-15T06:08:44;-4.80;99.90
30399;DHT22;17195;50.838;7.214;2022-12-15T06:11:12;-4.70;99.90
30399;DHT22;17195;50.838;7.214;2022-12-15T06:13:38;-4.60;99.90
30399;DHT22;17195;50.838;7.214;2022-12-15T06:16:06;-4.50;99.90
30399;DHT22;17195;50.838;7.214;2022-12-15T06:18:35;-4.50;99.90
30399;DHT22;17195;50.838;7.214;2022-12-15T06:21:03;-4.50;99.90
30399;DHT22;17195;50.838;7.214;2022-12-15T06:23:30;-4.50;99.90
30399;DHT22;17195;50.838;7.214;2022-12-15T06:25:57;-4.50;99.90
30399;DHT22;17195;50.838;7.214;2022-12-15T06:28:24;-4.40;99.90
30399;DHT22;17195;50.838;7.214;2022-12-15T06:33:21;-4.30;99.90
30399;DHT22;17195;50.838;7.214;2022-12-15T06:35:48;-4.10;99.90
30399;DHT22;17195;50.838;7.214;2022-12-15T06:38:14;-4.10;99.90
30399;DHT22;17195;50.838;7.214;2022-12-15T06:40:40;-4.00;99.90
30399;DHT22;17195;50.838;7.214;2022-12-15T06:43:06;-4.00;99.90
30399;DHT22;17195;50.838;7.214;2022-12-15T06:45:33;-4.00;99.90
30399;DHT22;17195;50.838;7.214;2022-12-15T06:47:59;-4.00;99.90
30399;DHT22;17195;50.838;7.214;2022-12-15T06:50:24;-3.90;99.90
30399;DHT22;17195;50.838;7.214;2022-12-15T06:52:50;-3.80;99.90
30399;DHT22;17195;50.838;7.214;2022-12-15T06:55:15;-3.90;99.90
30399;DHT22;17195;50.838;7.214;2022-12-15T06:57:41;-3.80;99.90
30399;DHT22;17195;50.838;7.214;2022-12-15T07:00:07;-3.80;99.90
30399;DHT22;17195;50.838;7.214;2022-12-15T07:02:33;-3.80;99.90
30399;DHT22;17195;50.838;7.214;2022-12-15T07:04:58;-3.70;99.90
30399;DHT22;17195;50.838;7.214;2022-12-15T07:07:24;-3.70;99.90
30399;DHT22;17195;50.838;7.214;2022-12-15T07:09:50;-3.70;99.90
30399;DHT22;17195;50.838;7.214;2022-12-15T07:12:16;-3.80;99.90
30399;DHT22;17195;50.838;7.214;2022-12-15T07:14:42;-3.70;99.90
30399;DHT22;17195;50.838;7.214;2022-12-15T07:17:07;-3.70;99.90
30399;DHT22;17195;50.838;7.214;2022-12-15T07:19:35;-3.70;99.90
30399;DHT22;17195;50.838;7.214;2022-12-15T07:22:01;-3.50;99.90
30399;DHT22;17195;50.838;7.214;2022-12-15T07:24:26;-3.60;99.90
30399;DHT22;17195;50.838;7.214;2022-12-15T07:26:52;-3.50;99.90
30399;DHT22;17195;50.838;7.214;2022-12-15T07:29:17;-3.40;99.90
30399;DHT22;17195;50.838;7.214;2022-12-15T07:31:43;-3.30;99.90
30399;DHT22;17195;50.838;7.214;2022-12-15T07:34:10;-3.20;99.90
30399;DHT22;17195;50.838;7.214;2022-12-15T07:36:36;-3.10;99.90
30399;DHT22;17195;50.838;7.214;2022-12-15T07:39:03;-3.00;99.90
30399;DHT22;17195;50.838;7.214;2022-12-15T07:41:29;-2.90;99.90
30399;DHT22;17195;50.838;7.214;2022-12-15T07:43:55;-2.80;99.90
30399;DHT22;17195;50.838;7.214;2022-12-15T07:46:20;-2.80;99.90
30399;DHT22;17195;50.838;7.214;2022-12-15T07:48:46;-2.80;99.90
30399;DHT22;17195;50.838;7.214;2022-12-15T07:51:12;-2.70;99.90
30399;DHT22;17195;50.838;7.214;2022-12-15T07:53:37;-2.70;99.90
30399;DHT22;17195;50.838;7.214;2022-12-15T07:56:04;-2.60;99.90
30399;DHT22;17195;50.838;7.214;2022-12-15T07:58:31;-2.60;99.90
30399;DHT22;17195;50.838;7.214;2022-12-15T08:01:01;-2.50;99.90
30399;DHT22;17195;50.838;7.214;2022-12-15T08:03:28;-2.50;99.90
30399;DHT22;17195;50.838;7.214;2022-12-15T08:05:54;-2.40;99.90
30399;DHT22;17195;50.838;7.214;2022-12-15T08:08:20;-2.30;99.90
30399;DHT22;17195;50.838;7.214;2022-12-15T08:10:46;-2.30;99.90
30399;DHT22;17195;50.838;7.214;2022-12-15T08:13:13;-2.10;99.90
30399;DHT22;17195;50.838;7.214;2022-12-15T08:15:39;-2.10;99.90
30399;DHT22;17195;50.838;7.214;2022-12-15T08:18:06;-2.00;99.90
30399;DHT22;17195;50.838;7.214;2022-12-15T08:20:32;-2.00;99.90
30399;DHT22;17195;50.838;7.214;2022-12-15T08:22:58;-2.00;99.90
30399;DHT22;17195;50.838;7.214;2022-12-15T08:25:24;-2.10;99.90
30399;DHT22;17195;50.838;7.214;2022-12-15T08:27:53;-2.10;99.90
30399;DHT22;17195;50.838;7.214;2022-12-15T08:30:18;-2.10;99.90
30399;DHT22;17195;50.838;7.214;2022-12-15T08:32:45;-2.10;99.90
30399;DHT22;17195;50.838;7.214;2022-12-15T08:35:12;-2.10;99.90
30399;DHT22;17195;50.838;7.214;2022-12-15T08:37:38;-2.10;99.90
30399;DHT22;17195;50.838;7.214;2022-12-15T08:40:04;-2.10;99.90
30399;DHT22;17195;50.838;7.214;2022-12-15T08:42:34;-2.10;99.90
30399;DHT22;17195;50.838;7.214;2022-12-15T08:45:00;-2.10;99.90
30399;DHT22;17195;50.838;7.214;2022-12-15T08:47:26;-2.10;99.90
30399;DHT22;17195;50.838;7.214;2022-12-15T08:49:51;-2.10;99.90
30399;DHT22;17195;50.838;7.214;2022-12-15T08:52:19;-2.00;99.90
30399;DHT22;17195;50.838;7.214;2022-12-15T08:54:44;-1.90;99.90
30399;DHT22;17195;50.838;7.214;2022-12-15T08:57:10;-2.00;99.90
30399;DHT22;17195;50.838;7.214;2022-12-15T08:59:36;-1.90;99.90
30399;DHT22;17195;50.838;7.214;2022-12-15T09:02:01;-1.90;99.90
30399;DHT22;17195;50.838;7.214;2022-12-15T09:04:27;-1.80;99.90
30399;DHT22;17195;50.838;7.214;2022-12-15T09:06:52;-1.70;99.90
30399;DHT22;17195;50.838;7.214;2022-12-15T09:09:18;-1.70;99.90
30399;DHT22;17195;50.838;7.214;2022-12-15T09:11:44;-1.60;99.90
30399;DHT22;17195;50.838;7.214;2022-12-15T09:14:10;-1.60;99.90
30399;DHT22;17195;50.838;7.214;2022-12-15T09:16:35;-1.70;99.90
30399;DHT22;17195;50.838;7.214;2022-12-15T09:19:01;-1.70;99.90
30399;DHT22;17195;50.838;7.214;2022-12-15T09:21:29;-1.60;99.90
30399;DHT22;17195;50.838;7.214;2022-12-15T09:23:57;-1.50;99.90
30399;DHT22;17195;50.838;7.214;2022-12-15T09:26:25;-1.50;99.90
30399;DHT22;17195;50.838;7.214;2022-12-15T09:28:51;-1.30;99.90
30399;DHT22;17195;50.838;7.214;2022-12-15T09:31:24;-1.20;99.90
30399;DHT22;17195;50.838;7.214;2022-12-15T09:33:54;-1.30;99.90
30399;DHT22;17195;50.838;7.214;2022-12-15T09:36:20;-1.30;99.90
30399;DHT22;17195;50.838;7.214;2022-12-15T09:38:46;-1.40;99.90
30399;DHT22;17195;50.838;7.214;2022-12-15T09:43:55;-1.40;99.90
30399;DHT22;17195;50.838;7.214;2022-12-15T09:51:50;-1.20;99.90
30399;DHT22;17195;50.838;7.214;2022-12-15T09:54:18;-1.30;99.90
30399;DHT22;17195;50.838;7.214;2022-12-15T09:56:55;-1.30;99.90
30399;DHT22;17195;50.838;7.214;2022-12-15T09:59:32;-1.20;99.90
30399;DHT22;17195;50.838;7.214;2022-12-15T10:02:33;-1.20;99.90
30399;DHT22;17195;50.838;7.214;2022-12-15T10:07:53;-1.00;99.90
30399;DHT22;17195;50.838;7.214;2022-12-15T10:10:23;-1.10;99.90
30399;DHT22;17195;50.838;7.214;2022-12-15T10:12:53;-1.00;99.90
30399;DHT22;17195;50.838;7.214;2022-12-15T10:15:26;-1.00;99.90
30399;DHT22;17195;50.838;7.214;2022-12-15T10:18:12;-1.00;99.90
30399;DHT22;17195;50.838;7.214;2022-12-15T10:20:40;-1.00;99.90
30399;DHT22;17195;50.838;7.214;2022-12-15T10:23:13;-1.00;99.90
30399;DHT22;17195;50.838;7.214;2022-12-15T10:25:45;-1.00;99.90
30399;DHT22;17195;50.838;7.214;2022-12-15T10:30:53;-0.90;99.90
30399;DHT22;17195;50.838;7.214;2022-12-15T10:33:22;-0.90;99.90
30399;DHT22;17195;50.838;7.214;2022-12-15T10:35:52;-0.80;99.90
30399;DHT22;17195;50.838;7.214;2022-12-15T10:40:51;-0.70;99.90
30399;DHT22;17195;50.838;7.214;2022-12-15T10:46:41;-0.50;99.90
30399;DHT22;17195;50.838;7.214;2022-12-15T10:48:50;-0.50;99.90
30399;DHT22;17195;50.838;7.214;2022-12-15T10:51:28;-0.30;99.90
30399;DHT22;17195;50.838;7.214;2022-12-15T10:56:54;-0.10;99.90
30399;DHT22;17195;50.838;7.214;2022-12-15T10:59:27;0.00;99.90
30399;DHT22;17195;50.838;7.214;2022-12-15T11:01:53;0.00;99.90
30399;DHT22;17195;50.838;7.214;2022-12-15T11:04:37;0.00;99.90
30399;DHT22;17195;50.838;7.214;2022-12-15T11:07:03;-0.10;99.90
30399;DHT22;17195;50.838;7.214;2022-12-15T11:09:33;-0.10;99.90
30399;DHT22;17195;50.838;7.214;2022-12-15T11:12:00;-0.20;99.90
30399;DHT22;17195;50.838;7.214;2022-12-15T11:14:49;-0.30;99.90
30399;DHT22;17195;50.838;7.214;2022-12-15T11:17:20;-0.40;99.90
30399;DHT22;17195;50.838;7.214;2022-12-15T11:19:57;-0.30;99.90
30399;DHT22;17195;50.838;7.214;2022-12-15T11:23:08;-0.30;99.90
30399;DHT22;17195;50.838;7.214;2022-12-15T11:25:28;-0.10;99.90
30399;DHT22;17195;50.838;7.214;2022-12-15T11:27:56;0.00;99.90
30399;DHT22;17195;50.838;7.214;2022-12-15T11:30:28;0.20;99.90
30399;DHT22;17195;50.838;7.214;2022-12-15T11:32:58;0.30;99.90
30399;DHT22;17195;50.838;7.214;2022-12-15T11:35:29;0.30;99.90
30399;DHT22;17195;50.838;7.214;2022-12-15T11:38:22;0.30;99.90
30399;DHT22;17195;50.838;7.214;2022-12-15T11:40:51;0.30;99.90
30399;DHT22;17195;50.838;7.214;2022-12-15T11:43:29;0.30;99.90
30399;DHT22;17195;50.838;7.214;2022-12-15T11:46:22;0.40;99.90
30399;DHT22;17195;50.838;7.214;2022-12-15T11:49:07;0.40;99.90
30399;DHT22;17195;50.838;7.214;2022-12-15T11:54:26;0.60;99.90
30399;DHT22;17195;50.838;7.214;2022-12-15T11:57:42;0.60;99.90
30399;DHT22;17195;50.838;7.214;2022-12-15T12:00:20;0.80;99.90
30399;DHT22;17195;50.838;7.214;2022-12-15T12:06:13;0.90;99.90
30399;DHT22;17195;50.838;7.214;2022-12-15T12:11:11;0.90;99.90
30399;DHT22;17195;50.838;7.214;2022-12-15T12:14:15;1.00;99.90
30399;DHT22;17195;50.838;7.214;2022-12-15T12:16:50;1.00;99.90
30399;DHT22;17195;50.838;7.214;2022-12-15T12:19:40;0.90;99.90
30399;DHT22;17195;50.838;7.214;2022-12-15T12:22:15;0.90;99.90
30399;DHT22;17195;50.838;7.214;2022-12-15T12:24:51;0.80;99.90
30399;DHT22;17195;50.838;7.214;2022-12-15T12:27:27;0.60;99.90
30399;DHT22;17195;50.838;7.214;2022-12-15T12:35:20;0.30;99.90
30399;DHT22;17195;50.838;7.214;2022-12-15T12:37:55;0.10;99.90
30399;DHT22;17195;50.838;7.214;2022-12-15T12:43:39;-0.30;99.90
30399;DHT22;17195;50.838;7.214;2022-12-15T12:46:15;-0.30;99.90
30399;DHT22;17195;50.838;7.214;2022-12-15T12:53:52;-0.10;99.90
30399;DHT22;17195;50.838;7.214;2022-12-15T12:56:38;0.00;99.90
30399;DHT22;17195;50.838;7.214;2022-12-15T12:59:31;0.10;99.90
30399;DHT22;17195;50.838;7.214;2022-12-15T13:02:39;0.10;99.90
30399;DHT22;17195;50.838;7.214;2022-12-15T13:05:28;0.20;99.90
30399;DHT22;17195;50.838;7.214;2022-12-15T13:08:16;0.30;99.90
30399;DHT22;17195;50.838;7.214;2022-12-15T13:10:44;0.40;99.90
30399;DHT22;17195;50.838;7.214;2022-12-15T13:19:04;0.60;99.90
30399;DHT22;17195;50.838;7.214;2022-12-15T13:24:29;0.70;99.90
30399;DHT22;17195;50.838;7.214;2022-12-15T13:29:35;0.60;99.90
30399;DHT22;17195;50.838;7.214;2022-12-15T13:32:02;0.70;99.90
30399;DHT22;17195;50.838;7.214;2022-12-15T13:34:35;0.60;99.90
30399;DHT22;17195;50.838;7.214;2022-12-15T13:37:16;0.70;99.90
30399;DHT22;17195;50.838;7.214;2022-12-15T13:39:53;0.70;99.90
30399;DHT22;17195;50.838;7.214;2022-12-15T13:42:24;0.80;99.90
30399;DHT22;17195;50.838;7.214;2022-12-15T13:44:53;0.90;99.90
30399;DHT22;17195;50.838;7.214;2022-12-15T13:47:26;0.90;99.90
30399;DHT22;17195;50.838;7.214;2022-12-15T13:52:48;0.80;99.90
30399;DHT22;17195;50.838;7.214;2022-12-15T13:55:33;0.80;99.90
30399;DHT22;17195;50.838;7.214;2022-12-15T13:58:05;0.80;99.90
30399;DHT22;17195;50.838;7.214;2022-12-15T14:00:31;0.80;99.90
30399;DHT22;17195;50.838;7.214;2022-12-15T14:03:10;0.80;99.90
30399;DHT22;17195;50.838;7.214;2022-12-15T14:05:36;0.70;99.90
30399;DHT22;17195;50.838;7.214;2022-12-15T14:08:08;0.70;99.90
30399;DHT22;17195;50.838;7.214;2022-12-15T14:10:38;0.70;99.90
30399;DHT22;17195;50.838;7.214;2022-12-15T14:13:26;0.80;99.90
30399;DHT22;17195;50.838;7.214;2022-12-15T14:15:58;0.70;99.90
30399;DHT22;17195;50.838;7.214;2022-12-15T14:18:28;0.60;99.90
30399;DHT22;17195;50.838;7.214;2022-12-15T14:20:54;0.60;99.90
30399;DHT22;17195;50.838;7.214;2022-12-15T14:23:23;0.50;99.90
30399;DHT22;17195;50.838;7.214;2022-12-15T14:28:28;0.20;99.90
30399;DHT22;17195;50.838;7.214;2022-12-15T14:31:00;0.20;99.90
30399;DHT22;17195;50.838;7.214;2022-12-15T14:33:27;0.10;99.90
30399;DHT22;17195;50.838;7.214;2022-12-15T14:35:54;0.00;99.90
30399;DHT22;17195;50.838;7.214;2022-12-15T14:41:01;-0.20;99.90
30399;DHT22;17195;50.838;7.214;2022-12-15T14:43:33;-0.20;99.90
30399;DHT22;17195;50.838;7.214;2022-12-15T14:46:22;-0.30;99.90
30399;DHT22;17195;50.838;7.214;2022-12-15T14:48:53;-0.40;99.90
30399;DHT22;17195;50.838;7.214;2022-12-15T14:51:20;-0.30;99.90
30399;DHT22;17195;50.838;7.214;2022-12-15T14:53:51;-0.30;99.90
30399;DHT22;17195;50.838;7.214;2022-12-15T14:58:44;-0.20;99.90
30399;DHT22;17195;50.838;7.214;2022-12-15T15:04:01;-0.30;99.90
30399;DHT22;17195;50.838;7.214;2022-12-15T15:06:37;-0.30;99.90
30399;DHT22;17195;50.838;7.214;2022-12-15T15:09:26;-0.40;99.90
30399;DHT22;17195;50.838;7.214;2022-12-15T15:12:02;-0.60;99.90
30399;DHT22;17195;50.838;7.214;2022-12-15T15:19:44;-0.70;99.90
30399;DHT22;17195;50.838;7.214;2022-12-15T15:24:57;-0.80;99.90
30399;DHT22;17195;50.838;7.214;2022-12-15T15:27:31;-0.90;99.90
30399;DHT22;17195;50.838;7.214;2022-12-15T15:30:25;-1.10;99.90
30399;DHT22;17195;50.838;7.214;2022-12-15T15:32:56;-1.30;99.90
30399;DHT22;17195;50.838;7.214;2022-12-15T15:35:27;-1.40;99.90
30399;DHT22;17195;50.838;7.214;2022-12-15T15:37:57;-1.60;99.90
30399;DHT22;17195;50.838;7.214;2022-12-15T15:40:24;-1.80;99.90
30399;DHT22;17195;50.838;7.214;2022-12-15T15:42:49;-1.90;99.90
30399;DHT22;17195;50.838;7.214;2022-12-15T15:45:15;-1.90;99.90
30399;DHT22;17195;50.838;7.214;2022-12-15T15:47:46;-2.00;99.90
30399;DHT22;17195;50.838;7.214;2022-12-15T15:50:15;-2.10;99.90
30399;DHT22;17195;50.838;7.214;2022-12-15T15:52:42;-2.20;99.90
30399;DHT22;17195;50.838;7.214;2022-12-15T15:55:13;-2.30;99.90
30399;DHT22;17195;50.838;7.214;2022-12-15T15:57:39;-2.40;99.90
30399;DHT22;17195;50.838;7.214;2022-12-15T16:00:16;-2.50;99.90
30399;DHT22;17195;50.838;7.214;2022-12-15T16:02:43;-2.50;99.90
30399;DHT22;17195;50.838;7.214;2022-12-15T16:05:09;-2.60;99.90
30399;DHT22;17195;50.838;7.214;2022-12-15T16:07:35;-2.70;99.90
30399;DHT22;17195;50.838;7.214;2022-12-15T16:10:01;-2.70;99.90
30399;DHT22;17195;50.838;7.214;2022-12-15T16:12:34;-2.80;99.90
30399;DHT22;17195;50.838;7.214;2022-12-15T16:15:15;-3.00;99.90
30399;DHT22;17195;50.838;7.214;2022-12-15T16:17:41;-3.10;99.90
30399;DHT22;17195;50.838;7.214;2022-12-15T16:20:09;-3.00;99.90
30399;DHT22;17195;50.838;7.214;2022-12-15T16:22:35;-3.10;99.90
30399;DHT22;17195;50.838;7.214;2022-12-15T16:25:01;-3.20;99.90
30399;DHT22;17195;50.838;7.214;2022-12-15T16:27:26;-3.20;99.90
30399;DHT22;17195;50.838;7.214;2022-12-15T16:29:52;-3.30;99.90
30399;DHT22;17195;50.838;7.214;2022-12-15T16:32:17;-3.40;99.90
30399;DHT22;17195;50.838;7.214;2022-12-15T16:34:43;-3.30;99.90
30399;DHT22;17195;50.838;7.214;2022-12-15T16:37:24;-3.50;99.90
30399;DHT22;17195;50.838;7.214;2022-12-15T16:39:50;-3.60;99.90
30399;DHT22;17195;50.838;7.214;2022-12-15T16:42:16;-3.60;99.90
30399;DHT22;17195;50.838;7.214;2022-12-15T16:44:42;-3.60;99.90
30399;DHT22;17195;50.838;7.214;2022-12-15T16:47:07;-3.70;99.90
30399;DHT22;17195;50.838;7.214;2022-12-15T16:49:34;-3.70;99.90
30399;DHT22;17195;50.838;7.214;2022-12-15T16:51:59;-3.70;99.90
30399;DHT22;17195;50.838;7.214;2022-12-15T16:54:26;-3.80;99.90
30399;DHT22;17195;50.838;7.214;2022-12-15T16:56:53;-3.70;99.90
30399;DHT22;17195;50.838;7.214;2022-12-15T16:59:22;-3.70;99.90
30399;DHT22;17195;50.838;7.214;2022-12-15T17:01:48;-3.70;99.90
30399;DHT22;17195;50.838;7.214;2022-12-15T17:04:14;-3.80;99.90
30399;DHT22;17195;50.838;7.214;2022-12-15T17:06:41;-3.90;99.90
30399;DHT22;17195;50.838;7.214;2022-12-15T17:09:09;-4.00;99.90
30399;DHT22;17195;50.838;7.214;2022-12-15T17:11:37;-4.10;99.90
30399;DHT22;17195;50.838;7.214;2022-12-15T17:14:03;-4.00;99.90
30399;DHT22;17195;50.838;7.214;2022-12-15T17:16:29;-4.10;99.90
30399;DHT22;17195;50.838;7.214;2022-12-15T17:18:55;-4.20;99.90
30399;DHT22;17195;50.838;7.214;2022-12-15T17:23:51;-4.40;99.90
30399;DHT22;17195;50.838;7.214;2022-12-15T17:26:22;-4.40;99.90
30399;DHT22;17195;50.838;7.214;2022-12-15T17:28:48;-4.50;99.90
30399;DHT22;17195;50.838;7.214;2022-12-15T17:31:18;-4.50;99.90
30399;DHT22;17195;50.838;7.214;2022-12-15T17:33:45;-4.50;99.90
30399;DHT22;17195;50.838;7.214;2022-12-15T17:36:21;-4.50;99.90
30399;DHT22;17195;50.838;7.214;2022-12-15T17:38:57;-4.60;99.90
30399;DHT22;17195;50.838;7.214;2022-12-15T17:41:25;-4.60;99.90
30399;DHT22;17195;50.838;7.214;2022-12-15T17:43:51;-4.70;99.90
30399;DHT22;17195;50.838;7.214;2022-12-15T17:46:16;-4.70;99.90
30399;DHT22;17195;50.838;7.214;2022-12-15T17:48:43;-4.60;99.90
30399;DHT22;17195;50.838;7.214;2022-12-15T17:51:16;-4.70;99.90